sensor_id;sensor_type;location;lat;lon;timestamp;P1;durP1;ratioP1;P2;durP2;ratioP2
68655;SDS011;55638;51.122;13.606;2023-02-02T00:00:57;3.42;;;3.03;;
68655;SDS011;55638;51.122;13.606;2023-02-02T00:02:28;3.42;;;2.58;;
68655;SDS011;55638;51.122;13.606;2023-02-02T00:04:00;3.63;;;2.58;;
68655;SDS011;55638;51.122;13.606;2023-02-02T00:05:33;3.50;;;2.45;;
68655;SDS011;55638;51.122;13.606;2023-02-02T00:07:05;4.75;;;2.58;;
68655;SDS011;55638;51.122;13.606;2023-02-02T00:08:37;3.35;;;2.53;;
68655;SDS011;55638;51.122;13.606;2023-02-02T00:10:09;3.58;;;2.95;;
68655;SDS011;55638;51.122;13.606;2023-02-02T00:11:43;5.88;;;2.92;;
68655;SDS011;55638;51.122;13.606;2023-02-02T00:13:16;2.85;;;2.42;;
68655;SDS011;55638;51.122;13.606;2023-02-02T00:14:48;2.75;;;2.55;;
68655;SDS011;55638;51.122;13.606;2023-02-02T00:17:57;2.97;;;2.67;;
68655;SDS011;55638;51.122;13.606;2023-02-02T00:19:29;5.15;;;3.15;;
68655;SDS011;55638;51.122;13.606;2023-02-02T00:21:02;4.28;;;2.67;;
68655;SDS011;55638;51.122;13.606;2023-02-02T00:22:34;3.80;;;2.63;;
68655;SDS011;55638;51.122;13.606;2023-02-02T00:24:07;3.33;;;2.40;;
68655;SDS011;55638;51.122;13.606;2023-02-02T00:25:39;5.28;;;2.47;;
68655;SDS011;55638;51.122;13.606;2023-02-02T00:27:11;2.88;;;2.35;;
68655;SDS011;55638;51.122;13.606;2023-02-02T00:28:43;3.85;;;2.90;;
68655;SDS011;55638;51.122;13.606;2023-02-02T00:30:15;3.20;;;2.88;;
68655;SDS011;55638;51.122;13.606;2023-02-02T00:31:47;4.78;;;3.33;;
68655;SDS011;55638;51.122;13.606;2023-02-02T00:33:19;4.93;;;2.95;;
68655;SDS011;55638;51.122;13.606;2023-02-02T00:34:51;5.32;;;2.83;;
68655;SDS011;55638;51.122;13.606;2023-02-02T00:36:23;4.38;;;2.97;;
68655;SDS011;55638;51.122;13.606;2023-02-02T00:37:55;4.35;;;3.20;;
68655;SDS011;55638;51.122;13.606;2023-02-02T00:39:27;5.72;;;2.35;;
68655;SDS011;55638;51.122;13.606;2023-02-02T00:41:00;4.53;;;2.63;;
68655;SDS011;55638;51.122;13.606;2023-02-02T00:42:31;4.97;;;3.22;;
68655;SDS011;55638;51.122;13.606;2023-02-02T00:44:03;4.45;;;3.00;;
68655;SDS011;55638;51.122;13.606;2023-02-02T00:45:53;4.40;;;2.25;;
68655;SDS011;55638;51.122;13.606;2023-02-02T00:47:25;3.47;;;2.47;;
68655;SDS011;55638;51.122;13.606;2023-02-02T00:48:57;3.67;;;2.20;;
68655;SDS011;55638;51.122;13.606;2023-02-02T00:50:29;2.63;;;2.35;;
68655;SDS011;55638;51.122;13.606;2023-02-02T00:52:01;4.45;;;3.03;;
68655;SDS011;55638;51.122;13.606;2023-02-02T00:53:33;6.65;;;2.97;;
68655;SDS011;55638;51.122;13.606;2023-02-02T00:55:05;5.20;;;2.88;;
68655;SDS011;55638;51.122;13.606;2023-02-02T00:56:38;5.85;;;3.00;;
68655;SDS011;55638;51.122;13.606;2023-02-02T00:58:09;4.22;;;2.22;;
68655;SDS011;55638;51.122;13.606;2023-02-02T00:59:41;3.35;;;2.53;;
68655;SDS011;55638;51.122;13.606;2023-02-02T01:01:14;4.95;;;2.38;;
68655;SDS011;55638;51.122;13.606;2023-02-02T01:02:52;4.03;;;2.25;;
68655;SDS011;55638;51.122;13.606;2023-02-02T01:04:25;4.13;;;2.80;;
68655;SDS011;55638;51.122;13.606;2023-02-02T01:05:57;3.78;;;2.70;;
68655;SDS011;55638;51.122;13.606;2023-02-02T01:07:29;4.97;;;2.42;;
68655;SDS011;55638;51.122;13.606;2023-02-02T01:09:01;4.75;;;2.65;;
68655;SDS011;55638;51.122;13.606;2023-02-02T01:10:34;4.68;;;2.70;;
68655;SDS011;55638;51.122;13.606;2023-02-02T01:12:05;3.97;;;2.65;;
68655;SDS011;55638;51.122;13.606;2023-02-02T01:13:37;5.70;;;2.53;;
68655;SDS011;55638;51.122;13.606;2023-02-02T01:15:09;4.00;;;2.30;;
68655;SDS011;55638;51.122;13.606;2023-02-02T01:16:42;7.68;;;2.55;;
68655;SDS011;55638;51.122;13.606;2023-02-02T01:18:14;7.03;;;2.97;;
68655;SDS011;55638;51.122;13.606;2023-02-02T01:19:49;5.15;;;2.47;;
68655;SDS011;55638;51.122;13.606;2023-02-02T01:21:21;5.72;;;3.08;;
68655;SDS011;55638;51.122;13.606;2023-02-02T01:22:53;5.10;;;2.65;;
68655;SDS011;55638;51.122;13.606;2023-02-02T01:24:25;3.53;;;2.70;;
68655;SDS011;55638;51.122;13.606;2023-02-02T01:25:58;3.58;;;2.35;;
68655;SDS011;55638;51.122;13.606;2023-02-02T01:27:31;5.70;;;2.95;;
68655;SDS011;55638;51.122;13.606;2023-02-02T01:29:03;7.43;;;3.20;;
68655;SDS011;55638;51.122;13.606;2023-02-02T01:30:35;5.22;;;3.05;;
68655;SDS011;55638;51.122;13.606;2023-02-02T01:32:07;6.07;;;2.80;;
68655;SDS011;55638;51.122;13.606;2023-02-02T01:33:39;5.43;;;2.90;;
68655;SDS011;55638;51.122;13.606;2023-02-02T01:35:12;6.15;;;3.00;;
68655;SDS011;55638;51.122;13.606;2023-02-02T01:36:43;5.40;;;2.55;;
68655;SDS011;55638;51.122;13.606;2023-02-02T01:38:15;3.80;;;2.70;;
68655;SDS011;55638;51.122;13.606;2023-02-02T01:39:48;4.13;;;3.05;;
68655;SDS011;55638;51.122;13.606;2023-02-02T01:41:21;6.93;;;2.83;;
68655;SDS011;55638;51.122;13.606;2023-02-02T01:42:54;4.35;;;2.85;;
68655;SDS011;55638;51.122;13.606;2023-02-02T01:46:29;4.03;;;2.42;;
68655;SDS011;55638;51.122;13.606;2023-02-02T01:48:04;4.75;;;2.55;;
68655;SDS011;55638;51.122;13.606;2023-02-02T01:49:36;5.82;;;2.85;;
68655;SDS011;55638;51.122;13.606;2023-02-02T01:51:12;5.22;;;2.58;;
68655;SDS011;55638;51.122;13.606;2023-02-02T01:52:47;4.75;;;2.35;;
68655;SDS011;55638;51.122;13.606;2023-02-02T01:54:27;4.50;;;2.78;;
68655;SDS011;55638;51.122;13.606;2023-02-02T01:56:04;7.50;;;2.55;;
68655;SDS011;55638;51.122;13.606;2023-02-02T01:57:40;5.57;;;2.47;;
68655;SDS011;55638;51.122;13.606;2023-02-02T01:59:15;5.07;;;2.95;;
68655;SDS011;55638;51.122;13.606;2023-02-02T02:00:49;3.17;;;2.55;;
68655;SDS011;55638;51.122;13.606;2023-02-02T02:02:22;5.43;;;2.40;;
68655;SDS011;55638;51.122;13.606;2023-02-02T02:03:56;5.60;;;2.85;;
68655;SDS011;55638;51.122;13.606;2023-02-02T02:05:34;6.32;;;2.67;;
68655;SDS011;55638;51.122;13.606;2023-02-02T02:07:08;8.10;;;2.67;;
68655;SDS011;55638;51.122;13.606;2023-02-02T02:08:46;7.68;;;2.65;;
68655;SDS011;55638;51.122;13.606;2023-02-02T02:10:23;4.80;;;2.15;;
68655;SDS011;55638;51.122;13.606;2023-02-02T02:11:55;4.20;;;2.63;;
68655;SDS011;55638;51.122;13.606;2023-02-02T02:13:27;4.07;;;2.63;;
68655;SDS011;55638;51.122;13.606;2023-02-02T02:15:20;4.72;;;2.53;;
68655;SDS011;55638;51.122;13.606;2023-02-02T02:17:13;3.75;;;1.95;;
68655;SDS011;55638;51.122;13.606;2023-02-02T02:19:17;3.95;;;1.83;;
68655;SDS011;55638;51.122;13.606;2023-02-02T02:21:36;5.82;;;1.58;;
68655;SDS011;55638;51.122;13.606;2023-02-02T02:36:01;4.07;;;2.10;;
68655;SDS011;55638;51.122;13.606;2023-02-02T02:37:45;5.20;;;1.75;;
68655;SDS011;55638;51.122;13.606;2023-02-02T02:39:31;4.68;;;2.33;;
68655;SDS011;55638;51.122;13.606;2023-02-02T02:41:09;5.72;;;2.33;;
68655;SDS011;55638;51.122;13.606;2023-02-02T02:42:49;3.60;;;1.95;;
68655;SDS011;55638;51.122;13.606;2023-02-02T02:44:25;4.32;;;2.20;;
68655;SDS011;55638;51.122;13.606;2023-02-02T02:45:58;4.80;;;2.63;;
68655;SDS011;55638;51.122;13.606;2023-02-02T02:47:31;4.72;;;2.20;;
68655;SDS011;55638;51.122;13.606;2023-02-02T02:49:06;5.60;;;1.95;;
68655;SDS011;55638;51.122;13.606;2023-02-02T02:50:40;3.83;;;1.90;;
68655;SDS011;55638;51.122;13.606;2023-02-02T02:52:12;3.78;;;2.03;;
68655;SDS011;55638;51.122;13.606;2023-02-02T02:53:44;7.53;;;2.47;;
68655;SDS011;55638;51.122;13.606;2023-02-02T02:55:16;3.30;;;1.88;;
68655;SDS011;55638;51.122;13.606;2023-02-02T02:57:01;3.83;;;2.03;;
68655;SDS011;55638;51.122;13.606;2023-02-02T02:58:44;3.40;;;1.70;;
68655;SDS011;55638;51.122;13.606;2023-02-02T03:00:48;5.43;;;2.10;;
68655;SDS011;55638;51.122;13.606;2023-02-02T03:02:32;3.85;;;1.70;;
68655;SDS011;55638;51.122;13.606;2023-02-02T03:05:48;4.65;;;1.80;;
68655;SDS011;55638;51.122;13.606;2023-02-02T03:07:28;7.57;;;1.90;;
68655;SDS011;55638;51.122;13.606;2023-02-02T03:09:07;4.65;;;1.73;;
68655;SDS011;55638;51.122;13.606;2023-02-02T03:10:42;9.02;;;2.30;;
68655;SDS011;55638;51.122;13.606;2023-02-02T03:12:16;4.35;;;1.83;;
68655;SDS011;55638;51.122;13.606;2023-02-02T03:13:48;5.18;;;2.05;;
68655;SDS011;55638;51.122;13.606;2023-02-02T03:15:20;5.95;;;2.08;;
68655;SDS011;55638;51.122;13.606;2023-02-02T03:16:53;5.53;;;2.38;;
68655;SDS011;55638;51.122;13.606;2023-02-02T03:18:26;5.90;;;2.13;;
68655;SDS011;55638;51.122;13.606;2023-02-02T03:20:00;7.45;;;1.83;;
68655;SDS011;55638;51.122;13.606;2023-02-02T03:21:32;4.47;;;1.98;;
68655;SDS011;55638;51.122;13.606;2023-02-02T03:23:04;4.72;;;2.10;;
68655;SDS011;55638;51.122;13.606;2023-02-02T03:24:36;5.75;;;2.15;;
68655;SDS011;55638;51.122;13.606;2023-02-02T03:26:08;5.70;;;2.40;;
68655;SDS011;55638;51.122;13.606;2023-02-02T03:27:40;6.43;;;2.58;;
68655;SDS011;55638;51.122;13.606;2023-02-02T03:29:12;5.82;;;2.35;;
68655;SDS011;55638;51.122;13.606;2023-02-02T03:30:44;5.45;;;2.50;;
68655;SDS011;55638;51.122;13.606;2023-02-02T03:32:18;4.60;;;2.17;;
68655;SDS011;55638;51.122;13.606;2023-02-02T03:33:49;5.35;;;2.17;;
68655;SDS011;55638;51.122;13.606;2023-02-02T03:35:21;4.88;;;2.40;;
68655;SDS011;55638;51.122;13.606;2023-02-02T03:36:53;5.00;;;2.03;;
68655;SDS011;55638;51.122;13.606;2023-02-02T03:38:25;4.57;;;2.63;;
68655;SDS011;55638;51.122;13.606;2023-02-02T03:39:57;4.88;;;2.83;;
68655;SDS011;55638;51.122;13.606;2023-02-02T03:41:29;6.30;;;2.85;;
68655;SDS011;55638;51.122;13.606;2023-02-02T03:43:00;5.32;;;2.53;;
68655;SDS011;55638;51.122;13.606;2023-02-02T03:44:33;5.28;;;2.78;;
68655;SDS011;55638;51.122;13.606;2023-02-02T03:46:05;4.13;;;2.65;;
68655;SDS011;55638;51.122;13.606;2023-02-02T03:47:37;6.25;;;2.67;;
68655;SDS011;55638;51.122;13.606;2023-02-02T03:49:09;7.25;;;3.50;;
68655;SDS011;55638;51.122;13.606;2023-02-02T03:50:41;3.92;;;2.67;;
68655;SDS011;55638;51.122;13.606;2023-02-02T03:52:12;8.20;;;2.80;;
68655;SDS011;55638;51.122;13.606;2023-02-02T03:53:44;7.65;;;3.17;;
68655;SDS011;55638;51.122;13.606;2023-02-02T03:55:18;9.65;;;3.80;;
68655;SDS011;55638;51.122;13.606;2023-02-02T03:56:50;5.93;;;3.55;;
68655;SDS011;55638;51.122;13.606;2023-02-02T03:58:21;6.75;;;3.28;;
68655;SDS011;55638;51.122;13.606;2023-02-02T03:59:53;8.77;;;3.50;;
68655;SDS011;55638;51.122;13.606;2023-02-02T04:01:26;4.75;;;3.22;;
68655;SDS011;55638;51.122;13.606;2023-02-02T04:02:59;7.15;;;3.65;;
68655;SDS011;55638;51.122;13.606;2023-02-02T04:04:31;7.82;;;4.30;;
68655;SDS011;55638;51.122;13.606;2023-02-02T04:06:03;6.13;;;3.45;;
68655;SDS011;55638;51.122;13.606;2023-02-02T04:07:35;7.68;;;3.70;;
68655;SDS011;55638;51.122;13.606;2023-02-02T04:09:07;5.97;;;3.30;;
68655;SDS011;55638;51.122;13.606;2023-02-02T04:10:40;5.32;;;3.40;;
68655;SDS011;55638;51.122;13.606;2023-02-02T04:12:12;7.18;;;4.20;;
68655;SDS011;55638;51.122;13.606;2023-02-02T04:13:44;4.57;;;3.47;;
68655;SDS011;55638;51.122;13.606;2023-02-02T04:15:16;6.40;;;4.03;;
68655;SDS011;55638;51.122;13.606;2023-02-02T04:16:48;7.13;;;3.80;;
68655;SDS011;55638;51.122;13.606;2023-02-02T04:18:20;6.60;;;4.35;;
68655;SDS011;55638;51.122;13.606;2023-02-02T04:19:52;8.50;;;2.95;;
68655;SDS011;55638;51.122;13.606;2023-02-02T04:21:28;8.10;;;3.22;;
68655;SDS011;55638;51.122;13.606;2023-02-02T04:23:00;6.72;;;3.40;;
68655;SDS011;55638;51.122;13.606;2023-02-02T04:24:32;7.20;;;3.65;;
68655;SDS011;55638;51.122;13.606;2023-02-02T04:26:03;7.18;;;3.80;;
68655;SDS011;55638;51.122;13.606;2023-02-02T04:27:35;5.80;;;3.50;;
68655;SDS011;55638;51.122;13.606;2023-02-02T04:29:07;4.88;;;3.28;;
68655;SDS011;55638;51.122;13.606;2023-02-02T04:30:39;7.25;;;3.30;;
68655;SDS011;55638;51.122;13.606;2023-02-02T04:32:12;7.78;;;4.03;;
68655;SDS011;55638;51.122;13.606;2023-02-02T04:33:45;5.13;;;3.33;;
68655;SDS011;55638;51.122;13.606;2023-02-02T04:35:17;6.57;;;3.47;;
68655;SDS011;55638;51.122;13.606;2023-02-02T04:36:49;7.40;;;3.72;;
68655;SDS011;55638;51.122;13.606;2023-02-02T04:38:21;7.10;;;3.35;;
68655;SDS011;55638;51.122;13.606;2023-02-02T04:39:53;6.28;;;3.75;;
68655;SDS011;55638;51.122;13.606;2023-02-02T04:41:25;5.75;;;4.05;;
68655;SDS011;55638;51.122;13.606;2023-02-02T04:42:57;5.20;;;4.28;;
68655;SDS011;55638;51.122;13.606;2023-02-02T04:44:29;5.90;;;3.90;;
68655;SDS011;55638;51.122;13.606;2023-02-02T04:46:01;7.72;;;4.28;;
68655;SDS011;55638;51.122;13.606;2023-02-02T04:47:33;7.40;;;3.38;;
68655;SDS011;55638;51.122;13.606;2023-02-02T04:49:05;4.90;;;3.50;;
68655;SDS011;55638;51.122;13.606;2023-02-02T04:50:36;7.68;;;3.72;;
68655;SDS011;55638;51.122;13.606;2023-02-02T04:52:09;6.20;;;3.33;;
68655;SDS011;55638;51.122;13.606;2023-02-02T04:53:41;7.22;;;3.95;;
68655;SDS011;55638;51.122;13.606;2023-02-02T04:55:13;9.55;;;3.55;;
68655;SDS011;55638;51.122;13.606;2023-02-02T04:56:45;7.47;;;4.43;;
68655;SDS011;55638;51.122;13.606;2023-02-02T04:58:17;7.18;;;4.85;;
68655;SDS011;55638;51.122;13.606;2023-02-02T04:59:49;5.97;;;3.67;;
68655;SDS011;55638;51.122;13.606;2023-02-02T05:01:21;5.13;;;3.30;;
68655;SDS011;55638;51.122;13.606;2023-02-02T05:02:54;7.80;;;4.25;;
68655;SDS011;55638;51.122;13.606;2023-02-02T05:04:25;5.00;;;4.10;;
68655;SDS011;55638;51.122;13.606;2023-02-02T05:06:01;4.13;;;3.72;;
68655;SDS011;55638;51.122;13.606;2023-02-02T05:07:34;6.10;;;4.05;;
68655;SDS011;55638;51.122;13.606;2023-02-02T05:09:06;5.20;;;3.72;;
68655;SDS011;55638;51.122;13.606;2023-02-02T05:10:41;4.45;;;3.63;;
68655;SDS011;55638;51.122;13.606;2023-02-02T05:12:13;7.35;;;3.65;;
68655;SDS011;55638;51.122;13.606;2023-02-02T05:13:45;5.70;;;3.58;;
68655;SDS011;55638;51.122;13.606;2023-02-02T05:15:18;6.03;;;3.55;;
68655;SDS011;55638;51.122;13.606;2023-02-02T05:16:52;7.15;;;3.58;;
68655;SDS011;55638;51.122;13.606;2023-02-02T05:18:24;8.70;;;4.47;;
68655;SDS011;55638;51.122;13.606;2023-02-02T05:19:56;6.65;;;3.67;;
68655;SDS011;55638;51.122;13.606;2023-02-02T05:21:28;9.07;;;4.15;;
68655;SDS011;55638;51.122;13.606;2023-02-02T05:23:00;6.90;;;4.05;;
68655;SDS011;55638;51.122;13.606;2023-02-02T05:24:31;9.38;;;4.18;;
68655;SDS011;55638;51.122;13.606;2023-02-02T05:26:03;8.95;;;4.40;;
68655;SDS011;55638;51.122;13.606;2023-02-02T05:27:35;7.03;;;4.25;;
68655;SDS011;55638;51.122;13.606;2023-02-02T05:29:07;8.93;;;4.05;;
68655;SDS011;55638;51.122;13.606;2023-02-02T05:30:39;9.93;;;4.15;;
68655;SDS011;55638;51.122;13.606;2023-02-02T05:32:11;6.22;;;3.83;;
68655;SDS011;55638;51.122;13.606;2023-02-02T05:33:43;9.73;;;4.22;;
68655;SDS011;55638;51.122;13.606;2023-02-02T05:35:15;6.93;;;4.05;;
68655;SDS011;55638;51.122;13.606;2023-02-02T05:36:47;7.72;;;3.72;;
68655;SDS011;55638;51.122;13.606;2023-02-02T05:38:18;10.10;;;4.55;;
68655;SDS011;55638;51.122;13.606;2023-02-02T05:39:50;6.40;;;3.83;;
68655;SDS011;55638;51.122;13.606;2023-02-02T05:41:24;7.57;;;3.55;;
68655;SDS011;55638;51.122;13.606;2023-02-02T05:42:56;8.25;;;3.78;;
68655;SDS011;55638;51.122;13.606;2023-02-02T05:44:27;5.20;;;4.03;;
68655;SDS011;55638;51.122;13.606;2023-02-02T05:45:59;7.07;;;3.97;;
68655;SDS011;55638;51.122;13.606;2023-02-02T05:47:32;8.57;;;5.10;;
68655;SDS011;55638;51.122;13.606;2023-02-02T05:49:06;4.50;;;3.90;;
68655;SDS011;55638;51.122;13.606;2023-02-02T05:50:41;6.38;;;3.80;;
68655;SDS011;55638;51.122;13.606;2023-02-02T05:52:16;8.25;;;3.95;;
68655;SDS011;55638;51.122;13.606;2023-02-02T05:53:52;9.68;;;3.78;;
68655;SDS011;55638;51.122;13.606;2023-02-02T05:55:24;11.32;;;4.00;;
68655;SDS011;55638;51.122;13.606;2023-02-02T05:56:56;7.50;;;4.18;;
68655;SDS011;55638;51.122;13.606;2023-02-02T05:58:31;10.55;;;3.78;;
68655;SDS011;55638;51.122;13.606;2023-02-02T06:00:03;5.15;;;3.45;;
68655;SDS011;55638;51.122;13.606;2023-02-02T06:01:43;5.45;;;3.65;;
68655;SDS011;55638;51.122;13.606;2023-02-02T06:03:15;7.57;;;3.78;;
68655;SDS011;55638;51.122;13.606;2023-02-02T06:04:47;7.47;;;4.43;;
68655;SDS011;55638;51.122;13.606;2023-02-02T06:06:19;7.32;;;3.65;;
68655;SDS011;55638;51.122;13.606;2023-02-02T06:07:51;5.10;;;4.00;;
68655;SDS011;55638;51.122;13.606;2023-02-02T06:09:22;5.93;;;3.65;;
68655;SDS011;55638;51.122;13.606;2023-02-02T06:10:55;8.52;;;3.95;;
68655;SDS011;55638;51.122;13.606;2023-02-02T06:12:27;8.07;;;3.58;;
68655;SDS011;55638;51.122;13.606;2023-02-02T06:13:59;8.15;;;4.05;;
68655;SDS011;55638;51.122;13.606;2023-02-02T06:15:30;5.20;;;3.92;;
68655;SDS011;55638;51.122;13.606;2023-02-02T06:17:03;6.00;;;3.95;;
68655;SDS011;55638;51.122;13.606;2023-02-02T06:18:35;7.07;;;3.63;;
68655;SDS011;55638;51.122;13.606;2023-02-02T06:20:08;5.85;;;3.55;;
68655;SDS011;55638;51.122;13.606;2023-02-02T06:21:40;8.38;;;4.82;;
68655;SDS011;55638;51.122;13.606;2023-02-02T06:23:12;6.18;;;3.65;;
68655;SDS011;55638;51.122;13.606;2023-02-02T06:24:44;7.18;;;3.92;;
68655;SDS011;55638;51.122;13.606;2023-02-02T06:26:15;8.30;;;5.03;;
68655;SDS011;55638;51.122;13.606;2023-02-02T06:27:48;6.85;;;4.00;;
68655;SDS011;55638;51.122;13.606;2023-02-02T06:29:20;5.72;;;4.07;;
68655;SDS011;55638;51.122;13.606;2023-02-02T06:30:52;4.35;;;3.47;;
68655;SDS011;55638;51.122;13.606;2023-02-02T06:32:24;6.05;;;4.07;;
68655;SDS011;55638;51.122;13.606;2023-02-02T06:33:56;10.27;;;4.18;;
68655;SDS011;55638;51.122;13.606;2023-02-02T06:35:29;5.20;;;4.00;;
68655;SDS011;55638;51.122;13.606;2023-02-02T06:37:01;9.23;;;5.03;;
68655;SDS011;55638;51.122;13.606;2023-02-02T06:38:32;6.00;;;4.25;;
68655;SDS011;55638;51.122;13.606;2023-02-02T06:40:05;6.57;;;3.63;;
68655;SDS011;55638;51.122;13.606;2023-02-02T06:41:37;9.05;;;4.70;;
68655;SDS011;55638;51.122;13.606;2023-02-02T06:43:11;6.05;;;3.60;;
68655;SDS011;55638;51.122;13.606;2023-02-02T06:44:45;7.22;;;4.15;;
68655;SDS011;55638;51.122;13.606;2023-02-02T06:46:17;6.90;;;4.13;;
68655;SDS011;55638;51.122;13.606;2023-02-02T06:47:49;9.20;;;4.47;;
68655;SDS011;55638;51.122;13.606;2023-02-02T06:49:21;9.48;;;4.75;;
68655;SDS011;55638;51.122;13.606;2023-02-02T06:50:52;7.93;;;4.90;;
68655;SDS011;55638;51.122;13.606;2023-02-02T06:52:24;7.78;;;3.63;;
68655;SDS011;55638;51.122;13.606;2023-02-02T06:53:56;6.70;;;4.43;;
68655;SDS011;55638;51.122;13.606;2023-02-02T06:55:30;4.97;;;4.20;;
68655;SDS011;55638;51.122;13.606;2023-02-02T06:57:02;9.10;;;4.60;;
68655;SDS011;55638;51.122;13.606;2023-02-02T06:58:33;4.43;;;4.03;;
68655;SDS011;55638;51.122;13.606;2023-02-02T07:00:05;8.32;;;4.28;;
68655;SDS011;55638;51.122;13.606;2023-02-02T07:01:38;5.22;;;3.83;;
68655;SDS011;55638;51.122;13.606;2023-02-02T07:03:14;4.75;;;4.10;;
68655;SDS011;55638;51.122;13.606;2023-02-02T07:04:47;4.82;;;3.78;;
68655;SDS011;55638;51.122;13.606;2023-02-02T07:06:24;6.72;;;4.22;;
68655;SDS011;55638;51.122;13.606;2023-02-02T07:07:58;10.15;;;4.40;;
68655;SDS011;55638;51.122;13.606;2023-02-02T07:09:32;4.75;;;3.90;;
68655;SDS011;55638;51.122;13.606;2023-02-02T07:11:04;7.43;;;4.13;;
68655;SDS011;55638;51.122;13.606;2023-02-02T07:12:46;4.55;;;3.45;;
68655;SDS011;55638;51.122;13.606;2023-02-02T07:14:17;7.07;;;4.63;;
68655;SDS011;55638;51.122;13.606;2023-02-02T07:15:49;8.13;;;4.15;;
68655;SDS011;55638;51.122;13.606;2023-02-02T07:17:21;10.07;;;4.28;;
68655;SDS011;55638;51.122;13.606;2023-02-02T07:18:52;9.38;;;4.88;;
68655;SDS011;55638;51.122;13.606;2023-02-02T07:20:24;7.53;;;4.55;;
68655;SDS011;55638;51.122;13.606;2023-02-02T07:21:56;8.65;;;5.32;;
68655;SDS011;55638;51.122;13.606;2023-02-02T07:23:28;11.10;;;5.13;;
68655;SDS011;55638;51.122;13.606;2023-02-02T07:25:00;6.88;;;4.25;;
68655;SDS011;55638;51.122;13.606;2023-02-02T07:26:32;7.88;;;5.13;;
68655;SDS011;55638;51.122;13.606;2023-02-02T07:28:05;8.57;;;4.88;;
68655;SDS011;55638;51.122;13.606;2023-02-02T07:29:37;12.15;;;5.72;;
68655;SDS011;55638;51.122;13.606;2023-02-02T07:31:13;8.75;;;5.05;;
68655;SDS011;55638;51.122;13.606;2023-02-02T07:32:49;9.77;;;3.73;;
68655;SDS011;55638;51.122;13.606;2023-02-02T07:34:21;9.07;;;3.90;;
68655;SDS011;55638;51.122;13.606;2023-02-02T07:35:53;7.68;;;4.65;;
68655;SDS011;55638;51.122;13.606;2023-02-02T07:37:25;6.63;;;4.88;;
68655;SDS011;55638;51.122;13.606;2023-02-02T07:38:57;10.70;;;4.97;;
68655;SDS011;55638;51.122;13.606;2023-02-02T07:40:28;9.32;;;4.90;;
68655;SDS011;55638;51.122;13.606;2023-02-02T07:42:00;8.82;;;4.90;;
68655;SDS011;55638;51.122;13.606;2023-02-02T07:43:39;7.43;;;4.60;;
68655;SDS011;55638;51.122;13.606;2023-02-02T07:45:10;9.57;;;4.93;;
68655;SDS011;55638;51.122;13.606;2023-02-02T07:46:58;8.07;;;3.85;;
68655;SDS011;55638;51.122;13.606;2023-02-02T07:48:30;8.32;;;4.78;;
68655;SDS011;55638;51.122;13.606;2023-02-02T07:50:01;7.47;;;4.85;;
68655;SDS011;55638;51.122;13.606;2023-02-02T07:51:34;7.18;;;4.50;;
68655;SDS011;55638;51.122;13.606;2023-02-02T07:53:08;6.68;;;4.80;;
68655;SDS011;55638;51.122;13.606;2023-02-02T07:54:40;10.85;;;5.05;;
68655;SDS011;55638;51.122;13.606;2023-02-02T07:56:13;7.93;;;5.57;;
68655;SDS011;55638;51.122;13.606;2023-02-02T07:57:46;8.15;;;5.15;;
68655;SDS011;55638;51.122;13.606;2023-02-02T07:59:18;8.00;;;5.25;;
68655;SDS011;55638;51.122;13.606;2023-02-02T08:00:49;5.70;;;4.60;;
68655;SDS011;55638;51.122;13.606;2023-02-02T08:02:21;8.13;;;5.40;;
68655;SDS011;55638;51.122;13.606;2023-02-02T08:03:54;7.80;;;4.57;;
68655;SDS011;55638;51.122;13.606;2023-02-02T08:05:27;8.35;;;5.20;;
68655;SDS011;55638;51.122;13.606;2023-02-02T08:06:59;9.20;;;4.75;;
68655;SDS011;55638;51.122;13.606;2023-02-02T08:08:31;5.07;;;4.50;;
68655;SDS011;55638;51.122;13.606;2023-02-02T08:10:03;5.18;;;4.45;;
68655;SDS011;55638;51.122;13.606;2023-02-02T08:11:35;5.45;;;4.78;;
68655;SDS011;55638;51.122;13.606;2023-02-02T08:13:08;7.78;;;5.78;;
68655;SDS011;55638;51.122;13.606;2023-02-02T08:14:40;9.25;;;5.00;;
68655;SDS011;55638;51.122;13.606;2023-02-02T08:16:12;8.23;;;4.72;;
68655;SDS011;55638;51.122;13.606;2023-02-02T08:17:44;11.30;;;5.40;;
68655;SDS011;55638;51.122;13.606;2023-02-02T08:19:17;5.97;;;4.85;;
68655;SDS011;55638;51.122;13.606;2023-02-02T08:20:49;9.13;;;4.95;;
68655;SDS011;55638;51.122;13.606;2023-02-02T08:22:22;6.85;;;5.15;;
68655;SDS011;55638;51.122;13.606;2023-02-02T08:23:54;8.25;;;5.03;;
68655;SDS011;55638;51.122;13.606;2023-02-02T08:25:26;9.23;;;5.35;;
68655;SDS011;55638;51.122;13.606;2023-02-02T08:26:58;9.35;;;5.80;;
68655;SDS011;55638;51.122;13.606;2023-02-02T08:28:30;6.85;;;5.47;;
68655;SDS011;55638;51.122;13.606;2023-02-02T08:30:02;6.93;;;4.90;;
68655;SDS011;55638;51.122;13.606;2023-02-02T08:31:35;10.07;;;5.15;;
68655;SDS011;55638;51.122;13.606;2023-02-02T08:33:08;8.68;;;4.95;;
68655;SDS011;55638;51.122;13.606;2023-02-02T08:34:40;11.43;;;4.88;;
68655;SDS011;55638;51.122;13.606;2023-02-02T08:36:13;7.93;;;4.78;;
68655;SDS011;55638;51.122;13.606;2023-02-02T08:37:47;7.88;;;4.93;;
68655;SDS011;55638;51.122;13.606;2023-02-02T08:39:19;9.80;;;5.05;;
68655;SDS011;55638;51.122;13.606;2023-02-02T08:40:51;7.82;;;5.75;;
68655;SDS011;55638;51.122;13.606;2023-02-02T08:42:23;7.03;;;4.65;;
68655;SDS011;55638;51.122;13.606;2023-02-02T08:43:55;7.72;;;6.13;;
68655;SDS011;55638;51.122;13.606;2023-02-02T08:45:26;10.65;;;6.05;;
68655;SDS011;55638;51.122;13.606;2023-02-02T08:47:18;9.25;;;4.70;;
68655;SDS011;55638;51.122;13.606;2023-02-02T08:48:50;10.93;;;5.72;;
68655;SDS011;55638;51.122;13.606;2023-02-02T08:50:22;8.13;;;5.82;;
68655;SDS011;55638;51.122;13.606;2023-02-02T08:51:54;9.30;;;6.35;;
68655;SDS011;55638;51.122;13.606;2023-02-02T08:53:26;8.25;;;5.55;;
68655;SDS011;55638;51.122;13.606;2023-02-02T08:54:58;11.57;;;5.95;;
68655;SDS011;55638;51.122;13.606;2023-02-02T08:56:30;6.78;;;5.63;;
68655;SDS011;55638;51.122;13.606;2023-02-02T08:58:02;12.48;;;6.15;;
68655;SDS011;55638;51.122;13.606;2023-02-02T08:59:34;6.82;;;4.95;;
68655;SDS011;55638;51.122;13.606;2023-02-02T09:01:16;9.50;;;5.50;;
68655;SDS011;55638;51.122;13.606;2023-02-02T09:02:51;7.80;;;4.68;;
68655;SDS011;55638;51.122;13.606;2023-02-02T09:04:22;7.88;;;5.30;;
68655;SDS011;55638;51.122;13.606;2023-02-02T09:05:54;8.82;;;5.10;;
68655;SDS011;55638;51.122;13.606;2023-02-02T09:07:26;8.52;;;5.28;;
68655;SDS011;55638;51.122;13.606;2023-02-02T09:08:58;6.25;;;4.78;;
68655;SDS011;55638;51.122;13.606;2023-02-02T09:10:30;10.13;;;5.25;;
68655;SDS011;55638;51.122;13.606;2023-02-02T09:12:02;9.27;;;6.05;;
68655;SDS011;55638;51.122;13.606;2023-02-02T09:13:35;6.82;;;5.55;;
68655;SDS011;55638;51.122;13.606;2023-02-02T09:15:08;6.05;;;5.40;;
68655;SDS011;55638;51.122;13.606;2023-02-02T09:16:40;6.53;;;5.82;;
68655;SDS011;55638;51.122;13.606;2023-02-02T09:18:12;10.10;;;5.35;;
68655;SDS011;55638;51.122;13.606;2023-02-02T09:19:47;8.02;;;4.85;;
68655;SDS011;55638;51.122;13.606;2023-02-02T09:21:19;11.23;;;5.88;;
68655;SDS011;55638;51.122;13.606;2023-02-02T09:22:53;9.18;;;5.93;;
68655;SDS011;55638;51.122;13.606;2023-02-02T09:24:26;10.50;;;5.97;;
68655;SDS011;55638;51.122;13.606;2023-02-02T09:27:58;6.47;;;4.40;;
68655;SDS011;55638;51.122;13.606;2023-02-02T09:29:30;8.05;;;4.50;;
68655;SDS011;55638;51.122;13.606;2023-02-02T09:31:02;6.80;;;5.25;;
68655;SDS011;55638;51.122;13.606;2023-02-02T09:32:34;10.60;;;5.80;;
68655;SDS011;55638;51.122;13.606;2023-02-02T09:34:09;6.78;;;5.55;;